Home > Products > Valid Products > TAF

000
FTUS43 KSGF 311720
TAFSGF
TAF
KSGF 311720Z 3118/0118 18009KT P6SM SKC=



000
FTUS43 KSGF 311720
TAFJLN
TAF
KJLN 311720Z 3118/0118 19009KT P6SM SKC=



000
FTUS43 KSGF 311720
TAFSGF
TAF
KSGF 311720Z 3118/0118 18009KT P6SM SKC=



000
FTUS43 KSGF 311720
TAFJLN
TAF
KJLN 311720Z 3118/0118 19009KT P6SM SKC=



000
FTUS43 KSGF 311127
TAFJLN
TAF
KJLN 311127Z 3112/0112 16007KT P6SM SKC
     FM311400 20012KT P6SM FEW050
     FM312300 17008KT P6SM SKC=



000
FTUS43 KSGF 311127
TAFSGF
TAF
KSGF 311127Z 3112/0112 15008KT P6SM FEW090
     FM311600 19011KT P6SM FEW050
     FM010000 16008KT P6SM SKC=



000
FTUS43 KSGF 310923 AAA
TAFJLN
TAF AMD
KJLN 310923Z 3109/0106 15005KT P6SM SKC
     FM311100 18005KT 6SM BR SKC
     FM311400 20011G18KT P6SM FEW050
     FM312300 18009KT P6SM SKC=



000
FTUS43 KSGF 310520
TAFJLN
TAF
KJLN 310520Z 3106/0106 15005KT P6SM FEW060
      TEMPO 3110/3114 5SM BR
     FM311500 20011G18KT P6SM FEW050
     FM312300 18009KT P6SM SKC=



000
FTUS43 KSGF 310520
TAFJLN
TAF
KJLN 310520Z 3106/0106 15005KT P6SM FEW060
      TEMPO 3110/3114 5SM BR
     FM311500 20011G18KT P6SM FEW050
     FM312300 18009KT P6SM SKC=



000
FTUS43 KSGF 310520
TAFSGF
TAF
KSGF 310520Z 3106/0106 15008KT P6SM FEW060
     FM311600 18010KT P6SM FEW050=



000
FTUS43 KSGF 310520
TAFSGF
TAF
KSGF 310520Z 3106/0106 15008KT P6SM FEW060
     FM311600 18010KT P6SM FEW050=



000
FTUS43 KSGF 302320
TAFSGF
TAF
KSGF 302320Z 3100/3124 15007KT P6SM FEW050
     FM311600 19011KT P6SM FEW050=



000
FTUS43 KSGF 302320
TAFJLN
TAF
KJLN 302320Z 3100/3124 15005KT P6SM FEW060
     FM311500 20011G18KT P6SM SKC
     FM312300 18009KT P6SM SKC=



000
FTUS43 KSGF 302320
TAFJLN
TAF
KJLN 302320Z 3100/3124 15005KT P6SM FEW060
     FM311500 20011G18KT P6SM SKC
     FM312300 18009KT P6SM SKC=



000
FTUS43 KSGF 302320
TAFSGF
TAF
KSGF 302320Z 3100/3124 15007KT P6SM FEW050
     FM311600 19011KT P6SM FEW050=



000
FTUS43 KSGF 302240 AAB
TAFSGF
TAF AMD
KSGF 302240Z 3023/3118 16008KT P6SM FEW040 SCT250
     FM310200 17007KT P6SM SCT250=



000
FTUS43 KSGF 302236 AAA
TAFJLN
TAF AMD
KJLN 302236Z 3023/3118 VRB05KT 4SM -TSRA BR BKN040CB
     FM302315 VRB05KT P6SM VCSH SCT040 BKN100
     FM310000 18007KT P6SM SCT250=



000
FTUS43 KSGF 302236 AAA
TAFJLN
TAF AMD
KJLN 302236Z 3023/3118 VRB05KT 4SM -TSRA BR BKN040CB
     FM302315 VRB05KT P6SM VCSH SCT040 BKN100
     FM310000 18007KT P6SM SCT250=



000
FTUS43 KSGF 301723
TAFSGF
TAF
KSGF 301723Z 3018/3118 16010KT P6SM SCT040 SCT250
     FM302100 16008KT P6SM VCTS SCT040CB BKN250
     FM310200 17007KT P6SM SCT250=



000
FTUS43 KSGF 301723
TAFJLN
TAF
KJLN 301723Z 3018/3118 18007KT P6SM SCT040 SCT250
     FM302100 16008KT P6SM VCSH SCT040 BKN250
     FM310200 18007KT P6SM SCT250=



000
FTUS43 KSGF 301424 AAB
TAFJLN
TAF AMD
KJLN 301424Z 3014/3112 12005KT 3SM BR SCT010
     FM301500 15005KT 5SM BR SCT030
     FM301600 18007KT P6SM SCT050
     FM310000 15006KT P6SM FEW080=



000
FTUS43 KSGF 301424 AAB
TAFJLN
TAF AMD
KJLN 301424Z 3014/3112 12005KT 3SM BR SCT010
     FM301500 15005KT 5SM BR SCT030
     FM301600 18007KT P6SM SCT050
     FM310000 15006KT P6SM FEW080=



000
FTUS43 KSGF 301314 AAA
TAFJLN
TAF AMD
KJLN 301314Z 3013/3112 09004KT 1/4SM FG BKN003
     FM301400 10004KT 1SM BR BKN005
     FM301500 15005KT 5SM BR SKC
     FM301600 18007KT P6SM SCT050
     FM310000 15006KT P6SM FEW080=



000
FTUS43 KSGF 301121
TAFSGF
TAF
KSGF 301121Z 3012/3112 15007KT P6SM BKN060
     FM301400 17007KT P6SM VCSH BKN045 PROB30 3021/3101 -TSRA
      OVC040CB
     FM310100 15008KT P6SM FEW090 BKN250=



000
FTUS43 KSGF 301121
TAFSGF
TAF
KSGF 301121Z 3012/3112 15007KT P6SM BKN060
     FM301400 17007KT P6SM VCSH BKN045 PROB30 3021/3101 -TSRA
      OVC040CB
     FM310100 15008KT P6SM FEW090 BKN250=



000
FTUS43 KSGF 301121
TAFJLN
TAF
KJLN 301121Z 3012/3112 VRB03KT 1/2SM FG BKN003
     FM301300 VRB03KT 2SM BR SCT005
     FM301400 15005KT 5SM BR SKC
     FM301500 18007KT P6SM SCT050
     FM310000 15006KT P6SM FEW080=



000
FTUS43 KSGF 301121
TAFJLN
TAF
KJLN 301121Z 3012/3112 VRB03KT 1/2SM FG BKN003
     FM301300 VRB03KT 2SM BR SCT005
     FM301400 15005KT 5SM BR SKC
     FM301500 18007KT P6SM SCT050
     FM310000 15006KT P6SM FEW080=



000
FTUS43 KSGF 300932 AAB
TAFJLN
TAF AMD
KJLN 300932Z 3010/3106 VRB03KT 1/2SM FG BKN004
     FM301300 VRB03KT 2SM BR SCT005
     FM301400 15005KT P6SM BKN050
     FM310000 15006KT P6SM FEW080=



000
FTUS43 KSGF 300802 AAA
TAFJLN
TAF AMD
KJLN 300802Z 3008/3106 VRB03KT 2SM BR SCT050
     FM301400 17007KT P6SM SCT050
     FM310000 15006KT P6SM FEW080=



000
FTUS43 KSGF 300520
TAFJLN
TAF
KJLN 300520Z 3006/3106 VRB04KT 5SM BR BKN050
     FM301500 17007KT P6SM SCT050
     FM310000 15006KT P6SM FEW080=



000
FTUS43 KSGF 300520
TAFJLN
TAF
KJLN 300520Z 3006/3106 VRB04KT 5SM BR BKN050
     FM301500 17007KT P6SM SCT050
     FM310000 15006KT P6SM FEW080=



000
FTUS43 KSGF 300520
TAFSGF
TAF
KSGF 300520Z 3006/3106 15005KT P6SM BKN060
     FM301400 17007KT P6SM SCT045 PROB30 3020/3101 4SM TSRA BR
      BKN035CB
     FM310200 14005KT P6SM FEW090=



000
FTUS43 KSGF 300520
TAFSGF
TAF
KSGF 300520Z 3006/3106 15005KT P6SM BKN060
     FM301400 17007KT P6SM SCT045 PROB30 3020/3101 4SM TSRA BR
      BKN035CB
     FM310200 14005KT P6SM FEW090=



000
FTUS43 KSGF 292320
TAFJLN
TAF
KJLN 292320Z 3000/3024 VRB05KT P6SM SCT035
     FM300300 VRB04KT P6SM BKN050
      TEMPO 3010/3013 5SM BR
     FM301500 18006KT P6SM SCT050=



000
FTUS43 KSGF 292320
TAFSGF
TAF
KSGF 292320Z 3000/3024 VRB05KT P6SM VCSH BKN035
      TEMPO 3001/3004 4SM TSRA BR BKN030CB
     FM300500 15006KT P6SM BKN050 PROB30 3009/3013 5SM -TSRA BR
      BKN040CB
     FM301400 17009KT P6SM SCT040 PROB30 3020/3024 4SM TSRA BR
      BKN035CB=



000
FTUS43 KSGF 292320
TAFJLN
TAF
KJLN 292320Z 3000/3024 VRB05KT P6SM SCT035
     FM300300 VRB04KT P6SM BKN050
      TEMPO 3010/3013 5SM BR
     FM301500 18006KT P6SM SCT050=



000
FTUS43 KSGF 292320
TAFSGF
TAF
KSGF 292320Z 3000/3024 VRB05KT P6SM VCSH BKN035
      TEMPO 3001/3004 4SM TSRA BR BKN030CB
     FM300500 15006KT P6SM BKN050 PROB30 3009/3013 5SM -TSRA BR
      BKN040CB
     FM301400 17009KT P6SM SCT040 PROB30 3020/3024 4SM TSRA BR
      BKN035CB=



000
FTUS43 KSGF 291725
TAFSGF
TAF
KSGF 291725Z 2918/3018 17010KT P6SM SCT040
     FM292100 18009KT P6SM VCTS BKN040CB
     FM300300 16006KT P6SM VCSH BKN040
     FM300900 17007KT P6SM BKN100=



000
FTUS43 KSGF 291725
TAFSGF
TAF
KSGF 291725Z 2918/3018 17010KT P6SM SCT040
     FM292100 18009KT P6SM VCTS BKN040CB
     FM300300 16006KT P6SM VCSH BKN040
     FM300900 17007KT P6SM BKN100=



000
FTUS43 KSGF 291725
TAFJLN
TAF
KJLN 291725Z 2918/3018 22008KT P6SM BKN030
     FM292100 23007KT P6SM VCTS BKN040CB
     FM300300 VRB04KT P6SM VCSH BKN040
     FM300900 15005KT P6SM BKN100=



000
FTUS43 KSGF 291725
TAFJLN
TAF
KJLN 291725Z 2918/3018 22008KT P6SM BKN030
     FM292100 23007KT P6SM VCTS BKN040CB
     FM300300 VRB04KT P6SM VCSH BKN040
     FM300900 15005KT P6SM BKN100=



000
FTUS43 KSGF 291125
TAFJLN
TAF
KJLN 291125Z 2912/3012 17007KT P6SM FEW070 BKN150 OVC200
     FM291500 22008KT P6SM BKN050
     FM300000 13004KT P6SM VCSH BKN050=



000
FTUS43 KSGF 291125
TAFSGF
TAF
KSGF 291125Z 2912/3012 16010KT P6SM SCT070 BKN150 OVC200
     FM291500 19010KT P6SM BKN050 PROB30 2921/3003 4SM TSRA BKN045CB
     FM300300 15008KT P6SM VCSH BKN050=



000
FTUS43 KSGF 291125
TAFSGF
TAF
KSGF 291125Z 2912/3012 16010KT P6SM SCT070 BKN150 OVC200
     FM291500 19010KT P6SM BKN050 PROB30 2921/3003 4SM TSRA BKN045CB
     FM300300 15008KT P6SM VCSH BKN050=



000
FTUS43 KSGF 291125
TAFJLN
TAF
KJLN 291125Z 2912/3012 17007KT P6SM FEW070 BKN150 OVC200
     FM291500 22008KT P6SM BKN050
     FM300000 13004KT P6SM VCSH BKN050=



000
FTUS43 KSGF 290520
TAFSGF
TAF
KSGF 290520Z 2906/3006 16010KT P6SM BKN150 OVC200
     FM290900 17009KT P6SM VCSH SCT070 BKN200
      TEMPO 2910/2914 5SM -TSRA BR BKN050CB
     FM291500 19010KT P6SM BKN060 PROB30 2921/3001 4SM TSRA BKN045CB
     FM300100 15008KT P6SM SCT060 PROB30 3003/3006 4SM TSRA
      BKN050CB=



000
FTUS43 KSGF 290520
TAFJLN
TAF
KJLN 290520Z 2906/3006 18009KT P6SM BKN150 OVC200
     FM290700 18008KT P6SM VCSH SCT070 BKN200 WS019/23035KT
      TEMPO 2908/2912 5SM -TSRA BR BKN050CB
     FM291300 21008KT P6SM SCT070
     FM291800 25007KT P6SM FEW045
     FM300000 VRB05KT P6SM SCT050 PROB30 3003/3006 4SM TSRA BR
      BKN045CB=



000
FTUS43 KSGF 290520
TAFSGF
TAF
KSGF 290520Z 2906/3006 16010KT P6SM BKN150 OVC200
     FM290900 17009KT P6SM VCSH SCT070 BKN200
      TEMPO 2910/2914 5SM -TSRA BR BKN050CB
     FM291500 19010KT P6SM BKN060 PROB30 2921/3001 4SM TSRA BKN045CB
     FM300100 15008KT P6SM SCT060 PROB30 3003/3006 4SM TSRA
      BKN050CB=



000
FTUS43 KSGF 290520
TAFJLN
TAF
KJLN 290520Z 2906/3006 18009KT P6SM BKN150 OVC200
     FM290700 18008KT P6SM VCSH SCT070 BKN200 WS019/23035KT
      TEMPO 2908/2912 5SM -TSRA BR BKN050CB
     FM291300 21008KT P6SM SCT070
     FM291800 25007KT P6SM FEW045
     FM300000 VRB05KT P6SM SCT050 PROB30 3003/3006 4SM TSRA BR
      BKN045CB=



000
FTUS43 KSGF 290120 AAA
TAFSGF
TAF AMD
KSGF 290120Z 2901/2924 15015KT P6SM BKN150 OVC200
     FM290600 16011KT P6SM BKN150 OVC200
     FM290900 16010KT P6SM VCSH SCT070 BKN200 WS015/22035KT
      TEMPO 2910/2914 5SM -TSRA BR BKN050CB
     FM291500 20010KT P6SM BKN060 PROB30 2921/2924 5SM -TSRA
      BKN045CB=



000
FTUS43 KSGF 290120 AAA
TAFSGF
TAF AMD
KSGF 290120Z 2901/2924 15015KT P6SM BKN150 OVC200
     FM290600 16011KT P6SM BKN150 OVC200
     FM290900 16010KT P6SM VCSH SCT070 BKN200 WS015/22035KT
      TEMPO 2910/2914 5SM -TSRA BR BKN050CB
     FM291500 20010KT P6SM BKN060 PROB30 2921/2924 5SM -TSRA
      BKN045CB=



000
FTUS43 KSGF 282320
TAFJLN
TAF
KJLN 282320Z 2900/2924 17009KT P6SM BKN150 OVC200
     FM290700 18008KT P6SM VCSH SCT070 BKN200 WS019/22035KT
      TEMPO 2908/2912 5SM -TSRA BR BKN050CB
     FM291300 21008KT P6SM SCT070
     FM291800 25007KT P6SM FEW045=



000
FTUS43 KSGF 282320
TAFSGF
TAF
KSGF 282320Z 2900/2924 16011KT P6SM BKN150 OVC200
     FM290900 16011KT P6SM VCSH SCT070 BKN200 WS015/22035KT
      TEMPO 2910/2914 5SM -TSRA BR BKN050CB
     FM291500 20010KT P6SM BKN060 PROB30 2921/2924 5SM -TSRA
      BKN045CB=



000
FTUS43 KSGF 282320
TAFJLN
TAF
KJLN 282320Z 2900/2924 17009KT P6SM BKN150 OVC200
     FM290700 18008KT P6SM VCSH SCT070 BKN200 WS019/22035KT
      TEMPO 2908/2912 5SM -TSRA BR BKN050CB
     FM291300 21008KT P6SM SCT070
     FM291800 25007KT P6SM FEW045=



000
FTUS43 KSGF 282320
TAFSGF
TAF
KSGF 282320Z 2900/2924 16011KT P6SM BKN150 OVC200
     FM290900 16011KT P6SM VCSH SCT070 BKN200 WS015/22035KT
      TEMPO 2910/2914 5SM -TSRA BR BKN050CB
     FM291500 20010KT P6SM BKN060 PROB30 2921/2924 5SM -TSRA
      BKN045CB=



    US Dept of Commerce
    National Oceanic and Atmospheric Administration
    National Weather Service
    1325 East West Highway
    Silver Spring, MD 20910
    Page Author: NWS Internet Services Team
Disclaimer
Information Quality
Credits
Glossary
Privacy Policy
Freedom of Information Act (FOIA)
About Us
Career Opportunities